Quitandinha, Brazil
Current Conditions -  °F | °C
As of 3:00 PM on Thursday 30 Oct 2014 (Local Time) from SBCT Reporting Station
Few Clouds Few Clouds  
Wind Chill: 88°   Ceiling: Unl
Heat Index: 88°   Visibility: 6mi
Dew Point: 39°   Wind: 9mph
Humidity: 18%   Direction: 330°NNW
Pressure: 29.85"   Gusts: NA
Location:  25.87°S, 49.5°W
Report Text: SBCT 301700Z 33008KT 9999 FEW035 31/04 Q1011
Loading
Personal Weather Stations






























Interactive Weather Map
Tropical Storm Tracking
New forecast layout! Learn more

10-Day Weather Forecast

Advertisements
Track Severe Weather on mobile